createdAt,value
2022-10-18T00:02:07.491Z,101810.53
2022-10-18T00:04:34.029Z,101816.59
2022-10-18T00:07:00.596Z,101821.94
2022-10-18T00:09:27.153Z,101807.03
2022-10-18T00:11:54.248Z,101804.91
2022-10-18T00:14:20.756Z,101804.72
2022-10-18T00:16:47.183Z,101806.50
2022-10-18T00:19:15.358Z,101815.47
2022-10-18T00:21:42.228Z,101814.97
2022-10-18T00:24:08.903Z,101809.16
2022-10-18T00:26:35.368Z,101817.78
2022-10-18T00:29:04.387Z,101816.81
2022-10-18T00:31:32.772Z,101821.09
2022-10-18T00:34:01.984Z,101835.16
2022-10-18T00:36:31.602Z,101831.53
2022-10-18T00:38:58.424Z,101832.63
2022-10-18T00:41:27.327Z,101831.19
2022-10-18T00:43:56.784Z,101835.84
2022-10-18T00:46:24.576Z,101840.63
2022-10-18T00:48:52.422Z,101838.66
2022-10-18T00:51:21.213Z,101834.50
2022-10-18T00:53:49.336Z,101841.16
2022-10-18T00:56:15.759Z,101840.63
2022-10-18T00:58:42.818Z,101834.34
2022-10-18T01:01:09.393Z,101839.97
2022-10-18T01:03:36.956Z,101841.47
2022-10-18T01:06:03.543Z,101838.34
2022-10-18T01:08:45.058Z,101841.47
2022-10-18T01:11:25.897Z,101832.19
2022-10-18T01:14:01.594Z,101834.47
2022-10-18T01:16:36.636Z,101839.16
2022-10-18T01:19:12.474Z,101837.16
2022-10-18T01:21:44.444Z,101840.94
2022-10-18T01:24:45.668Z,101846.25
2022-10-18T01:27:34.901Z,101841.66
2022-10-18T01:30:34.666Z,101842.78
2022-10-18T01:33:07.200Z,101834.00
2022-10-18T01:35:39.470Z,101829.53
2022-10-18T01:38:11.237Z,101821.25
2022-10-18T01:40:40.018Z,101817.81
2022-10-18T01:43:09.397Z,101812.19
2022-10-18T01:45:37.183Z,101803.88
2022-10-18T01:48:04.309Z,101808.38
2022-10-18T01:50:33.105Z,101811.50
2022-10-18T01:53:00.099Z,101804.06
2022-10-18T01:55:33.524Z,101798.28
2022-10-18T01:58:05.810Z,101806.19
2022-10-18T02:00:39.929Z,101799.44
2022-10-18T02:03:15.255Z,101802.09
2022-10-18T02:05:48.110Z,101804.75
2022-10-18T02:08:23.973Z,101806.22
2022-10-18T02:10:55.358Z,101801.25
2022-10-18T02:13:23.267Z,101799.47
2022-10-18T02:15:57.389Z,101785.22
2022-10-18T02:18:28.976Z,101788.66
2022-10-18T02:20:56.326Z,101796.63
2022-10-18T02:23:25.825Z,101798.13
2022-10-18T02:25:53.213Z,101803.84
2022-10-18T02:28:20.399Z,101790.16
2022-10-18T02:30:57.653Z,101792.50
2022-10-18T02:33:32.945Z,101792.81
2022-10-18T02:36:04.490Z,101790.53
2022-10-18T02:38:32.158Z,101779.91
2022-10-18T02:40:59.159Z,101788.88
2022-10-18T02:43:25.661Z,101779.41
2022-10-18T02:45:53.574Z,101780.72
2022-10-18T02:48:20.093Z,101779.88
2022-10-18T02:50:46.499Z,101785.69
2022-10-18T02:53:12.931Z,101788.50
2022-10-18T02:55:39.385Z,101793.84
2022-10-18T02:58:05.797Z,101791.03
2022-10-18T03:00:32.206Z,101778.06
2022-10-18T03:02:59.939Z,101784.56
2022-10-18T03:05:26.520Z,101764.34
2022-10-18T03:07:52.932Z,101769.13
2022-10-18T03:10:19.335Z,101773.28
2022-10-18T03:12:45.744Z,101777.09
2022-10-18T03:15:12.145Z,101779.63
2022-10-18T03:17:38.543Z,101780.75
2022-10-18T03:20:07.655Z,101772.78
2022-10-18T03:22:34.034Z,101785.06
2022-10-18T03:25:00.602Z,101778.59
2022-10-18T03:27:27.183Z,101781.25
2022-10-18T03:29:53.556Z,101771.19
2022-10-18T03:32:19.933Z,101774.16
2022-10-18T03:34:46.405Z,101761.38
2022-10-18T03:37:14.273Z,101766.84
2022-10-18T03:39:40.659Z,101769.31
2022-10-18T03:42:07.082Z,101770.66
2022-10-18T03:44:33.478Z,101766.53
2022-10-18T03:46:59.886Z,101768.03
2022-10-18T03:49:26.338Z,101769.34
2022-10-18T03:51:52.773Z,101759.09
2022-10-18T03:54:20.604Z,101765.03
2022-10-18T03:56:47.011Z,101754.94
2022-10-18T03:59:13.474Z,101745.69
2022-10-18T04:01:39.916Z,101746.38
2022-10-18T04:04:06.382Z,101754.13
2022-10-18T04:06:32.816Z,101746.38
2022-10-18T04:08:59.204Z,101748.16
2022-10-18T04:11:27.032Z,101750.78
2022-10-18T04:13:53.413Z,101754.44
2022-10-18T04:16:19.800Z,101758.44
2022-10-18T04:18:46.240Z,101761.56
2022-10-18T04:21:12.651Z,101761.56
2022-10-18T04:23:39.292Z,101765.50
2022-10-18T04:26:06.112Z,101769.81
2022-10-18T04:28:34.996Z,101766.81
2022-10-18T04:31:01.450Z,101769.03
2022-10-18T04:33:28.015Z,101767.16
2022-10-18T04:35:54.403Z,101761.09
2022-10-18T04:38:20.811Z,101754.28
2022-10-18T04:40:47.215Z,101762.41
2022-10-18T04:43:13.795Z,101759.56
2022-10-18T04:45:41.554Z,101754.09
2022-10-18T04:48:07.966Z,101757.88
2022-10-18T04:50:34.364Z,101759.25
2022-10-18T04:53:00.779Z,101754.91
2022-10-18T04:55:27.314Z,101758.53
2022-10-18T04:57:53.713Z,101756.41
2022-10-18T05:00:20.384Z,101765.34
2022-10-18T05:02:48.143Z,101764.19
2022-10-18T05:05:14.854Z,101761.53
2022-10-18T05:07:41.399Z,101772.44
2022-10-18T05:10:08.932Z,101768.81
2022-10-18T05:12:35.399Z,101771.97
2022-10-18T05:15:01.932Z,101771.63
2022-10-18T05:17:28.405Z,101769.63
2022-10-18T05:19:56.168Z,101771.97
2022-10-18T05:22:22.564Z,101780.13
2022-10-18T05:24:48.964Z,101776.78
2022-10-18T05:27:15.371Z,101777.88
2022-10-18T05:29:41.840Z,101781.38
2022-10-18T05:32:08.268Z,101785.69
2022-10-18T05:34:34.714Z,101783.50
2022-10-18T05:37:02.542Z,101779.91
2022-10-18T05:39:29.096Z,101778.38
2022-10-18T05:41:55.570Z,101784.19
2022-10-18T05:44:22.215Z,101787.16
2022-10-18T05:46:48.715Z,101781.69
2022-10-18T05:49:15.145Z,101782.84
2022-10-18T05:51:41.550Z,101783.34
2022-10-18T05:54:11.250Z,101783.47
2022-10-18T05:59:09.456Z,101788.22
2022-10-18T06:01:35.946Z,101792.56
2022-10-18T06:04:02.381Z,101794.94
2022-10-18T06:06:28.946Z,101798.41
2022-10-18T06:08:55.363Z,101797.41
2022-10-18T06:11:23.478Z,101792.47
2022-10-18T06:13:51.642Z,101799.22
2022-10-18T06:16:20.069Z,101808.75
2022-10-18T06:18:48.105Z,101799.72
2022-10-18T06:21:14.612Z,101811.31
2022-10-18T06:23:41.070Z,101823.03
2022-10-18T06:26:10.222Z,101818.28
2022-10-18T06:28:38.307Z,101824.38
2022-10-18T06:31:06.144Z,101822.72
2022-10-18T06:33:33.552Z,101830.25
2022-10-18T06:36:01.867Z,101830.13
2022-10-18T06:38:29.347Z,101826.66
2022-10-18T06:40:56.891Z,101833.63
2022-10-18T06:43:23.479Z,101834.72
2022-10-18T06:45:51.664Z,101833.69
2022-10-18T06:50:51.435Z,101842.66
2022-10-18T06:53:17.859Z,101845.84
2022-10-18T06:55:44.302Z,101846.63
2022-10-18T06:58:10.737Z,101849.84
2022-10-18T07:00:37.183Z,101847.00
2022-10-18T07:03:05.139Z,101844.16
2022-10-18T07:07:59.470Z,101844.53
2022-10-18T07:10:25.936Z,101847.41
2022-10-18T07:12:59.235Z,101848.34
2022-10-18T07:15:34.676Z,101846.34
2022-10-18T07:18:01.147Z,101838.06
2022-10-18T07:20:28.959Z,101830.75
2022-10-18T07:22:55.793Z,101836.13
2022-10-18T07:25:23.926Z,101839.25
2022-10-18T07:27:52.751Z,101835.50
2022-10-18T07:30:19.395Z,101831.81
2022-10-18T07:32:45.801Z,101845.66
2022-10-18T07:37:44.844Z,101848.84
2022-10-18T07:40:12.157Z,101844.72
2022-10-18T07:42:38.704Z,101850.81
2022-10-18T07:45:05.540Z,101841.63
2022-10-18T07:47:35.097Z,101841.47
2022-10-18T07:50:01.858Z,101835.47
2022-10-18T07:52:28.249Z,101838.66
2022-10-18T07:54:56.033Z,101834.66
2022-10-18T07:57:22.435Z,101841.00
2022-10-18T07:59:48.960Z,101839.31
2022-10-18T08:02:15.380Z,101844.94
2022-10-18T08:04:41.787Z,101847.94
2022-10-18T08:07:08.179Z,101855.88
2022-10-18T08:09:34.625Z,101855.69
2022-10-18T08:12:02.351Z,101849.53
2022-10-18T08:14:29.196Z,101849.00
2022-10-18T08:16:56.188Z,101842.53
2022-10-18T08:19:22.991Z,101845.97
2022-10-18T08:21:49.448Z,101845.44
2022-10-18T08:24:16.064Z,101841.63
2022-10-18T08:26:42.494Z,101846.13
2022-10-18T08:29:22.166Z,101837.13
2022-10-18T08:31:50.753Z,101839.59
2022-10-18T08:34:19.672Z,101844.13
2022-10-18T08:36:46.668Z,101846.44
2022-10-18T08:39:13.106Z,101846.88
2022-10-18T08:41:53.700Z,101836.44
2022-10-18T08:44:24.342Z,101849.81
2022-10-18T08:46:53.001Z,101859.81
2022-10-18T08:49:25.095Z,101858.47
2022-10-18T08:51:51.861Z,101853.88
2022-10-18T08:54:25.755Z,101863.66
2022-10-18T08:56:58.848Z,101860.16
2022-10-18T08:59:31.960Z,101866.09
2022-10-18T09:02:05.319Z,101874.38
2022-10-18T09:04:41.338Z,101873.56
2022-10-18T09:07:32.009Z,101877.03
2022-10-18T09:10:08.316Z,101872.56
2022-10-18T09:12:51.208Z,101888.09
2022-10-18T09:15:27.785Z,101890.16
2022-10-18T09:18:08.998Z,101893.22
2022-10-18T09:20:47.259Z,101891.50
2022-10-18T09:23:19.183Z,101893.44
2022-10-18T09:25:47.796Z,101888.13
2022-10-18T09:28:19.268Z,101888.44
2022-10-18T09:30:57.220Z,101900.03
2022-10-18T09:33:39.096Z,101895.91
2022-10-18T09:36:08.557Z,101894.72
2022-10-18T09:38:46.213Z,101900.59
2022-10-18T09:41:18.981Z,101899.94
2022-10-18T09:43:54.344Z,101903.19
2022-10-18T09:46:26.717Z,101899.03
2022-10-18T09:48:58.115Z,101900.34
2022-10-18T09:51:28.793Z,101903.84
2022-10-18T09:54:04.154Z,101903.47
2022-10-18T09:56:39.403Z,101909.94
2022-10-18T09:59:27.962Z,101895.84
2022-10-18T10:01:56.200Z,101895.19
2022-10-18T10:04:22.702Z,101900.63
2022-10-18T10:06:50.077Z,101897.94
2022-10-18T10:09:18.511Z,101901.81
2022-10-18T10:11:47.398Z,101911.34
2022-10-18T10:16:48.570Z,101905.81
2022-10-18T10:19:27.900Z,101915.94
2022-10-18T10:21:58.670Z,101910.78
2022-10-18T10:24:33.901Z,101906.19
2022-10-18T10:27:03.138Z,101911.91
2022-10-18T10:29:51.914Z,101910.59
2022-10-18T10:32:21.163Z,101912.97
2022-10-18T10:34:49.418Z,101916.25
2022-10-18T10:37:31.946Z,101914.84
2022-10-18T10:40:17.783Z,101920.06
2022-10-18T10:43:18.199Z,101909.47
2022-10-18T10:45:57.946Z,101908.81
2022-10-18T10:48:27.824Z,101904.28
2022-10-18T10:51:03.108Z,101910.22
2022-10-18T10:53:37.854Z,101903.59
2022-10-18T10:56:06.185Z,101906.06
2022-10-18T10:58:37.126Z,101906.03
2022-10-18T11:01:20.196Z,101908.47
2022-10-18T11:03:48.671Z,101908.59
2022-10-18T11:06:46.124Z,101904.34
2022-10-18T11:09:27.499Z,101903.16
2022-10-18T11:12:03.606Z,101894.66
2022-10-18T11:14:36.659Z,101902.69
2022-10-18T11:17:12.721Z,101909.94
2022-10-18T11:19:56.315Z,101899.53
2022-10-18T11:22:28.530Z,101893.16
2022-10-18T11:24:55.625Z,101897.38
2022-10-18T11:27:26.548Z,101889.97
2022-10-18T11:30:19.638Z,101883.59
2022-10-18T11:32:54.835Z,101890.59
2022-10-18T11:35:33.907Z,101880.78
2022-10-18T11:38:15.463Z,101878.78
2022-10-18T11:40:52.633Z,101879.53
2022-10-18T11:43:30.371Z,101882.38
2022-10-18T11:46:13.404Z,101879.00
2022-10-18T11:49:05.724Z,101874.53
2022-10-18T11:52:06.639Z,101873.78
2022-10-18T11:54:51.903Z,101867.44
2022-10-18T11:57:36.182Z,101882.50
2022-10-18T12:00:14.810Z,101869.22
2022-10-18T12:02:54.706Z,101875.06
2022-10-18T12:05:24.327Z,101868.91
2022-10-18T12:08:05.508Z,101866.34
2022-10-18T12:10:45.940Z,101882.97
2022-10-18T12:13:27.887Z,101871.56
2022-10-18T12:15:55.455Z,101876.06
2022-10-18T12:18:25.290Z,101877.81
2022-10-18T12:20:54.591Z,101873.09
2022-10-18T12:23:33.679Z,101872.38
2022-10-18T12:26:04.360Z,101870.63
2022-10-18T12:28:39.598Z,101870.13
2022-10-18T12:31:13.014Z,101870.88
2022-10-18T12:33:44.974Z,101866.63
2022-10-18T12:36:18.770Z,101862.06
2022-10-18T12:38:48.664Z,101857.25
2022-10-18T12:41:20.997Z,101852.53
2022-10-18T12:43:51.803Z,101845.41
2022-10-18T12:46:18.289Z,101856.75
2022-10-18T12:48:59.743Z,101852.75
2022-10-18T12:51:26.205Z,101861.47
2022-10-18T12:54:08.659Z,101856.97
2022-10-18T12:56:39.431Z,101869.16
2022-10-18T12:59:40.548Z,101868.78
2022-10-18T13:02:24.068Z,101857.34
2022-10-18T13:04:50.654Z,101863.56
2022-10-18T13:07:33.673Z,101872.72
2022-10-18T13:10:33.596Z,101864.25
2022-10-18T13:13:39.719Z,101869.06
2022-10-18T13:16:29.232Z,101876.69
2022-10-18T13:18:58.642Z,101876.78
2022-10-18T13:21:44.318Z,101862.75
2022-10-18T13:24:26.573Z,101860.78
2022-10-18T13:27:24.507Z,101866.56
2022-10-18T13:30:09.926Z,101875.16
2022-10-18T13:32:48.027Z,101869.75
2022-10-18T13:35:48.730Z,101862.28
2022-10-18T13:38:46.556Z,101869.91
2022-10-18T13:41:15.752Z,101873.22
2022-10-18T13:44:15.123Z,101873.41
2022-10-18T13:47:18.005Z,101876.38
2022-10-18T13:50:14.253Z,101875.22
2022-10-18T13:53:07.404Z,101880.16
2022-10-18T13:55:49.815Z,101882.31
2022-10-18T13:58:30.292Z,101889.75
2022-10-18T14:01:07.565Z,101887.31
2022-10-18T14:04:06.396Z,101884.66
2022-10-18T14:06:35.193Z,101897.53
2022-10-18T14:09:14.190Z,101886.97
2022-10-18T14:11:56.583Z,101891.91
2022-10-18T14:14:30.179Z,101885.47
2022-10-18T14:17:03.449Z,101895.59
2022-10-18T14:19:36.318Z,101900.19
2022-10-18T14:22:10.322Z,101898.72
2022-10-18T14:24:40.428Z,101906.66
2022-10-18T14:27:11.536Z,101911.59
2022-10-18T14:29:38.552Z,101911.31
2022-10-18T14:32:09.300Z,101908.31
2022-10-18T14:34:36.349Z,101912.25
2022-10-18T14:37:03.141Z,101903.38
2022-10-18T14:39:29.563Z,101912.75
2022-10-18T14:41:58.602Z,101913.91
2022-10-18T14:44:27.423Z,101908.94
2022-10-18T14:47:00.412Z,101906.63
2022-10-18T14:49:26.917Z,101905.66
2022-10-18T14:51:55.750Z,101912.44
2022-10-18T14:54:26.239Z,101910.19
2022-10-18T14:56:57.063Z,101921.69
2022-10-18T14:59:26.261Z,101918.75
2022-10-18T15:01:56.015Z,101921.19
2022-10-18T15:04:27.821Z,101912.88
2022-10-18T15:06:55.800Z,101915.38
2022-10-18T15:09:23.722Z,101919.50
2022-10-18T15:11:50.616Z,101913.75
2022-10-18T15:14:19.931Z,101907.09
2022-10-18T15:16:48.772Z,101914.91
2022-10-18T15:19:33.355Z,101913.44
2022-10-18T15:22:31.390Z,101914.06
2022-10-18T15:25:26.768Z,101910.81
2022-10-18T15:27:56.568Z,101906.38
2022-10-18T15:30:27.104Z,101905.16
2022-10-18T15:32:55.718Z,101916.34
2022-10-18T15:35:26.577Z,101906.09
2022-10-18T15:37:54.514Z,101901.84
2022-10-18T15:40:37.310Z,101908.75
2022-10-18T15:43:06.282Z,101915.75
2022-10-18T15:45:45.295Z,101913.63
2022-10-18T15:48:22.007Z,101914.66
2022-10-18T15:50:50.838Z,101916.44
2022-10-18T15:53:31.166Z,101914.47
2022-10-18T15:55:59.994Z,101918.69
2022-10-18T15:58:28.872Z,101917.59
2022-10-18T16:00:59.828Z,101918.91
2022-10-18T16:03:27.690Z,101925.31
2022-10-18T16:05:58.418Z,101916.75
2022-10-18T16:08:27.251Z,101927.34
2022-10-18T16:10:53.714Z,101932.31
2022-10-18T16:13:20.470Z,101929.53
2022-10-18T16:15:46.939Z,101926.81
2022-10-18T16:18:17.338Z,101927.63
2022-10-18T16:20:44.106Z,101931.63
2022-10-18T16:23:17.484Z,101936.41
2022-10-18T16:25:43.952Z,101940.69
2022-10-18T16:28:14.291Z,101934.81
2022-10-18T16:30:43.443Z,101936.41
2022-10-18T16:33:09.870Z,101945.47
2022-10-18T16:35:37.790Z,101949.50
2022-10-18T16:38:04.269Z,101945.13
2022-10-18T16:40:30.679Z,101947.72
2022-10-18T16:42:57.116Z,101958.13
2022-10-18T16:45:23.613Z,101956.41
2022-10-18T16:47:50.099Z,101951.72
2022-10-18T16:50:19.036Z,101957.84
2022-10-18T16:52:46.805Z,101966.97
2022-10-18T16:55:13.464Z,101966.63
2022-10-18T16:57:39.909Z,101972.09
2022-10-18T17:00:07.371Z,101972.25
2022-10-18T17:02:34.008Z,101981.66
2022-10-18T17:05:00.760Z,101971.56
2022-10-18T17:07:27.191Z,101981.44
2022-10-18T17:09:54.912Z,101984.66
2022-10-18T17:12:21.319Z,101989.38
2022-10-18T17:14:47.780Z,101985.25
2022-10-18T17:17:14.223Z,101995.69
2022-10-18T17:19:40.641Z,101990.47
2022-10-18T17:22:07.081Z,102002.56
2022-10-18T17:24:33.487Z,101999.72
2022-10-18T17:27:01.439Z,102002.78
2022-10-18T17:29:27.894Z,102002.78
2022-10-18T17:31:54.288Z,102006.88
2022-10-18T17:34:21.505Z,102013.84
2022-10-18T17:36:48.112Z,102014.84
2022-10-18T17:39:14.541Z,102016.72
2022-10-18T17:41:40.969Z,102021.03
2022-10-18T17:44:08.714Z,102024.59
2022-10-18T17:46:35.579Z,102020.28
2022-10-18T17:49:02.847Z,102031.91
2022-10-18T17:51:29.362Z,102028.13
2022-10-18T17:53:55.919Z,102026.78
2022-10-18T17:56:22.380Z,102041.13
2022-10-18T17:58:50.361Z,102042.91
2022-10-18T18:01:20.944Z,102041.56
2022-10-18T18:03:47.666Z,102041.09
2022-10-18T18:06:16.191Z,102032.97
2022-10-18T18:08:42.632Z,102030.75
2022-10-18T18:11:09.058Z,102029.19
2022-10-18T18:13:35.512Z,102024.94
2022-10-18T18:16:10.838Z,102034.06
2022-10-18T18:18:38.776Z,102039.34
2022-10-18T18:21:05.514Z,102039.75
2022-10-18T18:23:32.238Z,102041.75
2022-10-18T18:25:58.828Z,102040.13
2022-10-18T18:28:25.321Z,102036.69
2022-10-18T18:30:51.796Z,102043.47
2022-10-18T18:33:18.269Z,102039.53
2022-10-18T18:35:54.087Z,102044.88
2022-10-18T18:38:20.534Z,102037.72
2022-10-18T18:40:46.981Z,102043.41
2022-10-18T18:43:28.212Z,102044.94
2022-10-18T18:45:54.680Z,102049.78
2022-10-18T18:48:21.099Z,102039.91
2022-10-18T18:50:48.898Z,102042.03
2022-10-18T18:53:15.592Z,102040.81
2022-10-18T18:55:42.029Z,102049.13
2022-10-18T18:58:08.494Z,102037.56
2022-10-18T19:00:40.382Z,102035.28
2022-10-18T19:03:10.405Z,102036.47
2022-10-18T19:05:37.081Z,102031.91
2022-10-18T19:08:05.738Z,102033.50
2022-10-18T19:10:32.281Z,102030.28
2022-10-18T19:12:59.047Z,102030.38
2022-10-18T19:15:25.664Z,102030.75
2022-10-18T19:17:52.100Z,102030.16
2022-10-18T19:20:18.753Z,102035.03
2022-10-18T19:22:45.453Z,102032.56
2022-10-18T19:25:13.204Z,102036.34
2022-10-18T19:27:39.745Z,102044.06
2022-10-18T19:30:10.798Z,102042.19
2022-10-18T19:32:37.235Z,102046.44
2022-10-18T19:35:04.078Z,102062.31
2022-10-18T19:37:30.627Z,102051.97
2022-10-18T19:39:57.181Z,102053.56
2022-10-18T19:42:27.511Z,102052.25
2022-10-18T19:44:56.875Z,102054.44
2022-10-18T19:47:23.310Z,102059.91
2022-10-18T19:49:49.740Z,102067.22
2022-10-18T19:52:16.182Z,102077.72
2022-10-18T19:54:42.628Z,102076.59
2022-10-18T19:57:09.151Z,102076.81
2022-10-18T19:59:36.989Z,102076.25
2022-10-18T20:02:03.487Z,102079.25
2022-10-18T20:04:30.142Z,102074.84
2022-10-18T20:06:56.568Z,102070.28
2022-10-18T20:09:22.992Z,102076.59
2022-10-18T20:11:49.413Z,102071.53
2022-10-18T20:14:15.825Z,102074.47
2022-10-18T20:16:43.619Z,102068.13
2022-10-18T20:19:10.538Z,102073.50
2022-10-18T20:21:37.236Z,102085.06
2022-10-18T20:24:04.932Z,102083.94
2022-10-18T20:26:31.996Z,102088.94
2022-10-18T20:28:58.614Z,102084.19
2022-10-18T20:31:26.668Z,102087.84
2022-10-18T20:33:56.089Z,102093.59
2022-10-18T20:36:22.833Z,102090.91
2022-10-18T20:38:49.279Z,102094.03
2022-10-18T20:41:21.144Z,102081.59
2022-10-18T20:43:51.294Z,102080.25
2022-10-18T20:46:17.964Z,102073.28
2022-10-18T20:48:44.381Z,102080.41
2022-10-18T20:51:12.513Z,102085.13
2022-10-18T20:53:39.808Z,102078.59
2022-10-18T20:56:08.433Z,102078.72
2022-10-18T20:58:36.167Z,102080.50
2022-10-18T21:01:07.212Z,102086.66
2022-10-18T21:03:36.337Z,102081.28
2022-10-18T21:06:08.462Z,102086.50
2022-10-18T21:08:36.322Z,102081.75
2022-10-18T21:11:03.776Z,102075.53
2022-10-18T21:13:30.438Z,102067.38
2022-10-18T21:15:57.782Z,102064.88
2022-10-18T21:18:25.071Z,102071.47
2022-10-18T21:20:51.907Z,102073.78
2022-10-18T21:23:18.601Z,102079.13
2022-10-18T21:25:46.686Z,102076.34
2022-10-18T21:28:13.610Z,102080.25
2022-10-18T21:30:40.264Z,102078.34
2022-10-18T21:33:07.028Z,102075.13
2022-10-18T21:35:35.525Z,102073.03
2022-10-18T21:38:02.018Z,102075.00
2022-10-18T21:40:28.518Z,102078.25
2022-10-18T21:42:56.308Z,102086.47
2022-10-18T21:45:22.711Z,102081.59
2022-10-18T21:47:49.388Z,102086.69
2022-10-18T21:50:16.144Z,102085.88
2022-10-18T21:52:42.567Z,102080.81
2022-10-18T21:55:09.483Z,102076.84
2022-10-18T22:00:12.368Z,102092.75
2022-10-18T22:02:38.804Z,102085.28
2022-10-18T22:05:08.310Z,102089.97
2022-10-18T22:07:37.895Z,102089.81
2022-10-18T22:10:04.753Z,102091.50
2022-10-18T22:12:31.241Z,102101.50
2022-10-18T22:14:57.696Z,102092.88
2022-10-18T22:17:25.434Z,102086.81
2022-10-18T22:19:51.816Z,102098.03
2022-10-18T22:22:18.232Z,102085.84
2022-10-18T22:24:44.616Z,102085.97
2022-10-18T22:27:11.042Z,102082.44
2022-10-18T22:29:37.683Z,102085.06
2022-10-18T22:32:04.210Z,102071.16
2022-10-18T22:34:31.930Z,102079.16
2022-10-18T22:36:58.361Z,102079.47
2022-10-18T22:39:24.878Z,102076.81
2022-10-18T22:41:51.343Z,102085.47
2022-10-18T22:44:17.746Z,102074.94
2022-10-18T22:46:44.133Z,102077.53
2022-10-18T22:49:11.546Z,102077.84
2022-10-18T22:51:39.612Z,102075.59
2022-10-18T22:54:06.164Z,102067.00
2022-10-18T22:56:32.704Z,102060.59
2022-10-18T22:58:59.121Z,102067.75
2022-10-18T23:01:25.539Z,102060.03
2022-10-18T23:03:52.933Z,102058.22
2022-10-18T23:06:22.319Z,102055.94
2022-10-18T23:08:51.120Z,102047.41
2022-10-18T23:11:18.387Z,102047.88
2022-10-18T23:13:45.283Z,102054.78
2022-10-18T23:16:11.839Z,102056.06
2022-10-18T23:21:08.214Z,102044.31
2022-10-18T23:23:36.660Z,102049.16
2022-10-18T23:26:06.947Z,102053.78
2022-10-18T23:28:34.369Z,102048.97
2022-10-18T23:31:05.325Z,102045.09
2022-10-18T23:33:31.720Z,102048.38
2022-10-18T23:35:59.186Z,102053.94
2022-10-18T23:38:25.612Z,102048.88
2022-10-18T23:40:52.015Z,102051.31
2022-10-18T23:43:19.907Z,102048.16
2022-10-18T23:48:17.871Z,102053.94
2022-10-18T23:50:44.311Z,102055.53
2022-10-18T23:53:11.067Z,102049.78
2022-10-18T23:55:37.490Z,102047.47
2022-10-18T23:58:03.998Z,102048.59
